Buxton, Mississippi
Current Conditions -  °F | °C
As of 7:55 PM on Friday 31 Oct 2014 (Local Time) from KUTA Reporting Station
Clear Clear  
Wind Chill: 38°   Ceiling: Unl
Heat Index: 45°   Visibility: 10mi
Dew Point: 27°   Wind: 14mph
Humidity: 49%   Direction: 10°N
Pressure: 30.3"   Gusts: NA
Location:  34.6036°N, 90.124°W
Report Text: KUTA 010055Z AUTO 01012KT 10SM CLR 07/M03 A3030 RMK AO2
Loading
Personal Weather Stations






























Interactive Weather Map
Tropical Storm Tracking
New forecast layout! Learn more

10-Day Weather Forecast

Advertisements
Track Severe Weather on mobile